createdAt,value
2019-04-10T00:00:16.824Z,6.99
2019-04-10T00:01:16.048Z,6.97
2019-04-10T00:02:16.039Z,7.03
2019-04-10T00:03:25.729Z,6.97
2019-04-10T00:04:17.012Z,6.91
2019-04-10T00:05:16.000Z,6.89
2019-04-10T00:06:17.903Z,6.94
2019-04-10T00:07:18.407Z,6.80
2019-04-10T00:08:15.988Z,6.85
2019-04-10T00:09:16.904Z,6.80
2019-04-10T00:10:16.055Z,6.84
2019-04-10T00:11:16.582Z,6.81
2019-04-10T00:12:15.954Z,6.81
2019-04-10T00:13:15.913Z,6.84
2019-04-10T00:14:16.421Z,6.74
2019-04-10T00:15:17.454Z,6.69
2019-04-10T00:16:16.013Z,6.73
2019-04-10T00:17:16.554Z,6.84
2019-04-10T00:18:16.003Z,6.87
2019-04-10T00:19:15.844Z,6.85
2019-04-10T00:20:16.277Z,6.81
2019-04-10T00:21:15.823Z,6.84
2019-04-10T00:22:15.931Z,6.81
2019-04-10T00:23:15.797Z,6.80
2019-04-10T00:24:15.821Z,6.73
2019-04-10T00:25:16.772Z,6.70
2019-04-10T00:26:15.762Z,6.59
2019-04-10T00:27:16.601Z,6.59
2019-04-10T00:28:15.741Z,6.64
2019-04-10T00:29:16.132Z,6.69
2019-04-10T00:30:16.637Z,6.69
2019-04-10T00:31:15.820Z,6.67
2019-04-10T00:32:16.122Z,6.51
2019-04-10T00:33:16.590Z,6.61
2019-04-10T00:34:15.717Z,6.58
2019-04-10T00:35:15.680Z,6.59
2019-04-10T00:36:16.185Z,6.58
2019-04-10T00:37:23.840Z,6.59
2019-04-10T00:38:17.626Z,6.61
2019-04-10T00:39:15.621Z,6.54
2019-04-10T00:40:15.623Z,6.52
2019-04-10T00:41:16.335Z,6.54
2019-04-10T00:42:15.591Z,6.56
2019-04-10T00:43:15.570Z,6.52
2019-04-10T00:44:15.574Z,6.48
2019-04-10T00:45:15.567Z,6.44
2019-04-10T00:46:15.769Z,6.44
2019-04-10T00:47:15.526Z,6.43
2019-04-10T00:48:15.577Z,6.46
2019-04-10T00:49:15.618Z,6.33
2019-04-10T00:50:15.517Z,6.37
2019-04-10T00:51:15.479Z,6.31
2019-04-10T00:52:16.333Z,6.37
2019-04-10T00:53:15.456Z,6.37
2019-04-10T00:54:16.098Z,6.37
2019-04-10T00:55:15.433Z,6.25
2019-04-10T00:56:16.549Z,6.30
2019-04-10T00:57:15.412Z,6.27
2019-04-10T00:58:16.224Z,6.18
2019-04-10T00:59:15.789Z,6.21
2019-04-10T01:00:15.377Z,6.19
2019-04-10T01:01:15.991Z,6.19
2019-04-10T01:02:16.241Z,6.19
2019-04-10T01:03:15.638Z,6.09
2019-04-10T01:04:15.335Z,6.19
2019-04-10T01:05:15.326Z,6.14
2019-04-10T01:06:15.839Z,6.12
2019-04-10T01:07:15.298Z,6.17
2019-04-10T01:08:16.120Z,6.22
2019-04-10T01:09:15.414Z,6.25
2019-04-10T01:10:15.263Z,6.22
2019-04-10T01:11:15.296Z,6.15
2019-04-10T01:12:16.049Z,6.22
2019-04-10T01:13:15.230Z,6.17
2019-04-10T01:14:15.866Z,6.15
2019-04-10T01:15:15.275Z,6.11
2019-04-10T01:16:16.267Z,6.14
2019-04-10T01:17:15.849Z,6.03
2019-04-10T01:18:15.172Z,6.00
2019-04-10T01:19:15.559Z,5.90
2019-04-10T01:20:15.582Z,5.85
2019-04-10T01:21:15.137Z,5.85
2019-04-10T01:22:15.126Z,5.83
2019-04-10T01:23:16.036Z,5.94
2019-04-10T01:24:15.105Z,5.94
2019-04-10T01:25:15.108Z,5.81
2019-04-10T01:26:15.081Z,5.90
2019-04-10T01:27:15.976Z,5.85
2019-04-10T01:28:15.063Z,5.71
2019-04-10T01:29:15.508Z,5.78
2019-04-10T01:30:15.904Z,5.67
2019-04-10T01:31:15.254Z,5.72
2019-04-10T01:32:15.431Z,5.75
2019-04-10T01:33:15.002Z,5.78
2019-04-10T01:34:14.994Z,5.67
2019-04-10T01:35:16.093Z,5.81
2019-04-10T01:36:15.149Z,5.72
2019-04-10T01:37:14.956Z,5.68
2019-04-10T01:38:15.510Z,5.58
2019-04-10T01:39:15.884Z,5.64
2019-04-10T01:40:15.036Z,5.65
2019-04-10T01:41:15.294Z,5.58
2019-04-10T01:42:14.901Z,5.67
2019-04-10T01:43:18.514Z,5.54
2019-04-10T01:44:15.877Z,5.40
2019-04-10T01:45:15.397Z,5.35
2019-04-10T01:46:15.909Z,5.27
2019-04-10T01:47:15.157Z,5.33
2019-04-10T01:48:15.407Z,5.31
2019-04-10T01:49:15.669Z,5.27
2019-04-10T01:50:14.810Z,5.31
2019-04-10T01:51:15.167Z,5.22
2019-04-10T01:52:15.102Z,5.27
2019-04-10T01:53:14.774Z,5.31
2019-04-10T01:54:15.152Z,5.31
2019-04-10T01:55:22.887Z,5.24
2019-04-10T01:56:27.045Z,5.28
2019-04-10T01:57:16.654Z,5.31
2019-04-10T01:58:14.876Z,5.27
2019-04-10T01:59:14.709Z,5.25
2019-04-10T02:00:15.249Z,5.28
2019-04-10T02:01:14.684Z,5.24
2019-04-10T02:02:14.874Z,5.20
2019-04-10T02:03:14.663Z,5.21
2019-04-10T02:04:14.652Z,5.09
2019-04-10T02:05:14.639Z,5.04
2019-04-10T02:06:14.626Z,5.20
2019-04-10T02:07:14.617Z,5.18
2019-04-10T02:08:16.082Z,5.18
2019-04-10T02:09:15.050Z,5.20
2019-04-10T02:10:14.580Z,5.31
2019-04-10T02:11:15.430Z,5.20
2019-04-10T02:12:14.625Z,5.28
2019-04-10T02:13:14.929Z,5.21
2019-04-10T02:14:14.565Z,5.22
2019-04-10T02:15:15.891Z,5.15
2019-04-10T02:16:14.624Z,5.20
2019-04-10T02:17:14.743Z,5.06
2019-04-10T02:18:14.491Z,4.96
2019-04-10T02:19:16.317Z,5.04
2019-04-10T02:20:14.645Z,5.04
2019-04-10T02:21:14.455Z,5.04
2019-04-10T02:22:14.443Z,4.99
2019-04-10T02:23:19.151Z,4.96
2019-04-10T02:24:14.638Z,5.00
2019-04-10T02:25:14.425Z,4.97
2019-04-10T02:26:14.401Z,5.02
2019-04-10T02:27:14.388Z,5.03
2019-04-10T02:28:15.084Z,5.21
2019-04-10T02:29:15.531Z,5.18
2019-04-10T02:30:16.807Z,5.18
2019-04-10T02:31:14.752Z,5.24
2019-04-10T02:32:14.630Z,5.12
2019-04-10T02:33:15.798Z,5.21
2019-04-10T02:34:14.956Z,5.21
2019-04-10T02:35:17.200Z,5.18
2019-04-10T02:36:15.313Z,5.18
2019-04-10T02:37:15.283Z,5.12
2019-04-10T02:38:33.757Z,5.09
2019-04-10T02:39:25.640Z,5.06
2019-04-10T02:40:15.238Z,5.09
2019-04-10T02:41:14.281Z,5.04
2019-04-10T02:42:14.404Z,5.17
2019-04-10T02:43:15.953Z,5.20
2019-04-10T02:44:14.194Z,5.21
2019-04-10T02:45:14.898Z,5.17
2019-04-10T02:46:15.564Z,5.30
2019-04-10T02:47:14.696Z,5.22
2019-04-10T02:48:15.024Z,5.25
2019-04-10T02:49:14.431Z,5.25
2019-04-10T02:50:14.362Z,5.28
2019-04-10T02:51:15.141Z,5.20
2019-04-10T02:52:14.769Z,5.25
2019-04-10T02:53:15.307Z,5.24
2019-04-10T02:54:15.424Z,5.27
2019-04-10T02:55:14.452Z,5.24
2019-04-10T02:56:15.734Z,5.27
2019-04-10T02:57:14.054Z,5.25
2019-04-10T02:58:14.291Z,5.28
2019-04-10T02:59:15.494Z,5.30
2019-04-10T03:00:14.226Z,5.22
2019-04-10T03:01:15.585Z,5.22
2019-04-10T03:02:14.137Z,5.17
2019-04-10T03:03:14.040Z,5.24
2019-04-10T03:04:13.965Z,5.21
2019-04-10T03:05:15.853Z,5.22
2019-04-10T03:06:15.503Z,5.22
2019-04-10T03:07:15.667Z,5.20
2019-04-10T03:08:15.845Z,5.31
2019-04-10T03:09:30.380Z,5.10
2019-04-10T03:10:24.608Z,5.21
2019-04-10T03:11:16.918Z,5.15
2019-04-10T03:12:14.580Z,5.18
2019-04-10T03:13:14.331Z,5.20
2019-04-10T03:14:14.801Z,5.22
2019-04-10T03:15:15.046Z,5.15
2019-04-10T03:16:14.185Z,5.15
2019-04-10T03:17:13.817Z,5.20
2019-04-10T03:18:14.764Z,5.13
2019-04-10T03:19:13.794Z,5.18
2019-04-10T03:20:14.157Z,5.07
2019-04-10T03:21:13.772Z,5.15
2019-04-10T03:22:13.790Z,5.20
2019-04-10T03:23:13.749Z,5.17
2019-04-10T03:24:13.930Z,5.04
2019-04-10T03:25:14.833Z,5.07
2019-04-10T03:26:13.716Z,5.13
2019-04-10T03:27:14.256Z,5.02
2019-04-10T03:28:14.587Z,4.96
2019-04-10T03:29:13.779Z,5.07
2019-04-10T03:30:15.314Z,4.97
2019-04-10T03:31:15.709Z,4.96
2019-04-10T03:32:14.680Z,4.96
2019-04-10T03:33:19.006Z,4.84
2019-04-10T03:34:16.821Z,4.86
2019-04-10T03:35:14.564Z,4.82
2019-04-10T03:36:13.687Z,4.82
2019-04-10T03:37:13.594Z,4.80
2019-04-10T03:38:14.666Z,4.73
2019-04-10T03:39:13.567Z,4.80
2019-04-10T03:40:13.575Z,4.78
2019-04-10T03:41:13.547Z,4.78
2019-04-10T03:42:13.536Z,4.69
2019-04-10T03:43:13.976Z,4.70
2019-04-10T03:44:14.510Z,4.69
2019-04-10T03:45:13.621Z,4.75
2019-04-10T03:46:13.488Z,4.73
2019-04-10T03:47:13.480Z,4.72
2019-04-10T03:48:13.858Z,4.73
2019-04-10T03:49:13.746Z,4.69
2019-04-10T03:50:14.250Z,4.69
2019-04-10T03:51:14.378Z,4.72
2019-04-10T03:52:13.500Z,4.62
2019-04-10T03:53:14.005Z,4.75
2019-04-10T03:54:13.395Z,4.67
2019-04-10T03:55:13.608Z,4.69
2019-04-10T03:56:13.814Z,4.70
2019-04-10T03:57:14.269Z,4.47
2019-04-10T03:58:13.541Z,4.47
2019-04-10T03:59:13.844Z,4.47
2019-04-10T04:00:14.141Z,4.50
2019-04-10T04:01:14.402Z,4.45
2019-04-10T04:02:13.682Z,4.45
2019-04-10T04:03:13.292Z,4.45
2019-04-10T04:04:13.415Z,4.48
2019-04-10T04:05:13.273Z,4.45
2019-04-10T04:06:13.375Z,4.47
2019-04-10T04:07:13.451Z,4.58
2019-04-10T04:08:13.236Z,4.54
2019-04-10T04:09:14.700Z,4.47
2019-04-10T04:10:13.213Z,4.47
2019-04-10T04:11:13.470Z,4.47
2019-04-10T04:12:13.192Z,4.45
2019-04-10T04:13:13.224Z,4.42
2019-04-10T04:14:13.170Z,4.48
2019-04-10T04:15:13.551Z,4.44
2019-04-10T04:16:13.148Z,4.45
2019-04-10T04:17:13.649Z,4.34
2019-04-10T04:18:13.124Z,4.34
2019-04-10T04:19:13.557Z,4.41
2019-04-10T04:20:13.114Z,4.36
2019-04-10T04:21:13.094Z,4.33
2019-04-10T04:22:13.106Z,4.36
2019-04-10T04:23:13.790Z,4.32
2019-04-10T04:24:13.057Z,4.40
2019-04-10T04:25:13.047Z,4.33
2019-04-10T04:26:13.035Z,4.22
2019-04-10T04:27:13.258Z,4.18
2019-04-10T04:28:13.025Z,4.04
2019-04-10T04:29:13.001Z,4.14
2019-04-10T04:30:12.991Z,4.16
2019-04-10T04:31:13.005Z,4.09
2019-04-10T04:32:13.432Z,4.18
2019-04-10T04:33:13.086Z,4.09
2019-04-10T04:34:12.947Z,4.16
2019-04-10T04:35:13.219Z,4.15
2019-04-10T04:36:12.924Z,4.11
2019-04-10T04:37:12.912Z,4.04
2019-04-10T04:38:13.451Z,4.02
2019-04-10T04:39:21.681Z,4.06
2019-04-10T04:40:13.879Z,4.02
2019-04-10T04:41:13.292Z,4.08
2019-04-10T04:42:12.886Z,3.96
2019-04-10T04:43:12.848Z,3.86
2019-04-10T04:44:12.868Z,3.98
2019-04-10T04:45:12.840Z,3.87
2019-04-10T04:46:12.809Z,3.96
2019-04-10T04:47:13.367Z,4.02
2019-04-10T04:48:12.785Z,4.00
2019-04-10T04:49:13.678Z,4.08
2019-04-10T04:50:12.789Z,3.98
2019-04-10T04:51:12.753Z,4.05
2019-04-10T04:52:13.279Z,3.98
2019-04-10T04:53:12.732Z,3.97
2019-04-10T04:54:12.973Z,3.93
2019-04-10T04:55:12.723Z,3.88
2019-04-10T04:56:12.699Z,3.86
2019-04-10T04:57:12.828Z,3.80
2019-04-10T04:58:13.749Z,3.96
2019-04-10T04:59:12.663Z,3.87
2019-04-10T05:00:13.193Z,3.86
2019-04-10T05:01:12.753Z,4.00
2019-04-10T05:02:12.629Z,3.83
2019-04-10T05:03:12.618Z,3.90
2019-04-10T05:04:13.121Z,3.88
2019-04-10T05:05:12.613Z,3.93
2019-04-10T05:06:12.612Z,3.97
2019-04-10T05:07:13.520Z,4.09
2019-04-10T05:08:13.181Z,4.18
2019-04-10T05:09:20.970Z,4.12
2019-04-10T05:10:13.567Z,4.16
2019-04-10T05:11:12.529Z,4.16
2019-04-10T05:12:13.391Z,4.15
2019-04-10T05:13:13.411Z,4.18
2019-04-10T05:14:13.231Z,4.12
2019-04-10T05:15:12.960Z,4.20
2019-04-10T05:16:12.507Z,4.16
2019-04-10T05:17:15.132Z,4.22
2019-04-10T05:18:12.520Z,4.22
2019-04-10T05:19:12.440Z,4.29
2019-04-10T05:20:12.428Z,4.32
2019-04-10T05:21:12.715Z,4.33
2019-04-10T05:22:12.438Z,4.40
2019-04-10T05:23:12.395Z,4.33
2019-04-10T05:24:12.383Z,4.41
2019-04-10T05:25:13.257Z,4.45
2019-04-10T05:26:12.361Z,4.47
2019-04-10T05:27:12.348Z,4.45
2019-04-10T05:28:13.293Z,4.42
2019-04-10T05:29:13.166Z,4.51
2019-04-10T05:30:12.881Z,4.48
2019-04-10T05:31:12.305Z,4.47
2019-04-10T05:32:12.293Z,4.52
2019-04-10T05:33:12.308Z,4.47
2019-04-10T05:34:12.269Z,4.45
2019-04-10T05:35:12.260Z,4.59
2019-04-10T05:36:13.255Z,4.58
2019-04-10T05:37:12.241Z,4.63
2019-04-10T05:38:12.328Z,4.70
2019-04-10T05:39:12.658Z,4.73
2019-04-10T05:40:12.206Z,4.70
2019-04-10T05:41:13.270Z,4.69
2019-04-10T05:42:12.753Z,4.69
2019-04-10T05:43:12.179Z,4.78
2019-04-10T05:44:12.191Z,4.75
2019-04-10T05:45:12.677Z,4.78
2019-04-10T05:46:12.401Z,4.94
2019-04-10T05:47:12.125Z,4.97
2019-04-10T05:48:12.114Z,4.94
2019-04-10T05:49:12.771Z,5.12
2019-04-10T05:50:13.025Z,5.18
2019-04-10T05:51:12.588Z,5.18
2019-04-10T05:52:12.679Z,4.99
2019-04-10T05:53:12.060Z,5.09
2019-04-10T05:54:12.818Z,5.20
2019-04-10T05:55:12.050Z,5.24
2019-04-10T05:56:12.040Z,5.31
2019-04-10T05:57:12.447Z,5.42
2019-04-10T05:58:11.999Z,5.54
2019-04-10T05:59:13.206Z,5.54
2019-04-10T06:00:12.408Z,5.57
2019-04-10T06:01:11.964Z,5.75
2019-04-10T06:02:11.954Z,5.81
2019-04-10T06:03:12.350Z,5.91
2019-04-10T06:04:11.931Z,5.89
2019-04-10T06:05:11.984Z,5.82
2019-04-10T06:06:12.553Z,5.74
2019-04-10T06:07:12.749Z,5.64
2019-04-10T06:08:11.958Z,5.65
2019-04-10T06:09:12.193Z,5.64
2019-04-10T06:10:11.863Z,5.58
2019-04-10T06:11:13.560Z,5.46
2019-04-10T06:12:11.926Z,5.46
2019-04-10T06:13:12.973Z,5.42
2019-04-10T06:14:11.817Z,5.56
2019-04-10T06:15:12.823Z,5.67
2019-04-10T06:16:11.920Z,5.63
2019-04-10T06:17:11.785Z,5.56
2019-04-10T06:18:12.767Z,5.56
2019-04-10T06:19:11.761Z,5.56
2019-04-10T06:20:11.750Z,5.51
2019-04-10T06:21:12.578Z,5.46
2019-04-10T06:22:12.766Z,5.38
2019-04-10T06:23:11.715Z,5.33
2019-04-10T06:24:11.997Z,5.28
2019-04-10T06:25:13.947Z,5.30
2019-04-10T06:26:12.623Z,5.31
2019-04-10T06:27:12.301Z,5.35
2019-04-10T06:28:12.837Z,5.42
2019-04-10T06:29:12.809Z,5.42
2019-04-10T06:30:12.120Z,5.56
2019-04-10T06:31:12.516Z,5.83
2019-04-10T06:32:11.628Z,5.82
2019-04-10T06:33:11.752Z,5.85
2019-04-10T06:34:14.336Z,5.79
2019-04-10T06:35:11.584Z,5.74
2019-04-10T06:36:11.566Z,5.76
2019-04-10T06:37:11.585Z,5.76
2019-04-10T06:38:12.705Z,5.72
2019-04-10T06:39:11.534Z,5.85
2019-04-10T06:40:18.610Z,5.91
2019-04-10T06:41:15.881Z,5.93
2019-04-10T06:42:12.107Z,6.01
2019-04-10T06:43:11.497Z,6.01
2019-04-10T06:44:11.881Z,6.15
2019-04-10T06:45:11.507Z,6.21
2019-04-10T06:46:12.475Z,6.27
2019-04-10T06:47:11.930Z,6.27
2019-04-10T06:48:11.455Z,6.31
2019-04-10T06:49:12.279Z,6.12
2019-04-10T06:50:11.407Z,6.00
2019-04-10T06:51:12.298Z,6.03
2019-04-10T06:52:11.382Z,6.17
2019-04-10T06:53:11.374Z,6.22
2019-04-10T06:54:12.673Z,6.38
2019-04-10T06:55:11.377Z,6.41
2019-04-10T06:56:11.383Z,6.41
2019-04-10T06:57:11.407Z,6.54
2019-04-10T06:58:11.673Z,6.38
2019-04-10T06:59:12.180Z,6.41
2019-04-10T07:00:13.683Z,6.58
2019-04-10T07:01:12.515Z,6.55
2019-04-10T07:02:20.564Z,6.69
2019-04-10T07:03:12.259Z,6.71
2019-04-10T07:04:11.515Z,6.84
2019-04-10T07:05:12.411Z,6.81
2019-04-10T07:06:16.931Z,6.98
2019-04-10T07:07:15.168Z,7.05
2019-04-10T07:08:16.547Z,7.20
2019-04-10T07:09:12.235Z,7.32
2019-04-10T07:10:22.530Z,7.45
2019-04-10T07:11:13.534Z,7.40
2019-04-10T07:12:12.107Z,7.37
2019-04-10T07:13:13.027Z,7.39
2019-04-10T07:14:14.023Z,7.49
2019-04-10T07:15:11.152Z,7.60
2019-04-10T07:16:11.655Z,7.64
2019-04-10T07:17:13.876Z,7.64
2019-04-10T07:18:14.277Z,7.60
2019-04-10T07:19:13.202Z,7.53
2019-04-10T07:20:11.084Z,7.60
2019-04-10T07:21:11.058Z,7.82
2019-04-10T07:22:13.922Z,7.87
2019-04-10T07:23:13.920Z,8.05
2019-04-10T07:24:14.702Z,7.90
2019-04-10T07:25:12.703Z,7.85
2019-04-10T07:26:12.265Z,7.97
2019-04-10T07:27:11.948Z,8.01
2019-04-10T07:28:12.209Z,8.01
2019-04-10T07:29:11.093Z,8.15
2019-04-10T07:30:11.884Z,8.10
2019-04-10T07:31:11.633Z,8.08
2019-04-10T07:32:12.310Z,8.05
2019-04-10T07:33:14.855Z,8.15
2019-04-10T07:34:11.933Z,8.07
2019-04-10T07:35:13.824Z,8.10
2019-04-10T07:36:13.650Z,8.19
2019-04-10T07:37:14.666Z,8.15
2019-04-10T07:38:11.897Z,8.19
2019-04-10T07:39:10.850Z,8.36
2019-04-10T07:40:10.840Z,8.36
2019-04-10T07:41:16.876Z,8.47
2019-04-10T07:42:11.814Z,8.53
2019-04-10T07:43:11.157Z,8.52
2019-04-10T07:44:10.794Z,8.61
2019-04-10T07:45:10.784Z,8.62
2019-04-10T07:46:10.802Z,8.65
2019-04-10T07:47:11.178Z,8.98
2019-04-10T07:48:10.794Z,9.08
2019-04-10T07:49:10.736Z,9.18
2019-04-10T07:50:10.725Z,9.35
2019-04-10T07:51:11.248Z,9.39
2019-04-10T07:52:10.719Z,9.39
2019-04-10T07:53:10.694Z,9.42
2019-04-10T07:54:10.680Z,9.26
2019-04-10T07:55:10.781Z,9.18
2019-04-10T07:56:14.930Z,9.20
2019-04-10T07:57:11.865Z,9.13
2019-04-10T07:58:11.032Z,9.05
2019-04-10T07:59:10.908Z,9.28
2019-04-10T08:00:11.089Z,8.99
2019-04-10T08:01:10.602Z,9.13
2019-04-10T08:02:10.588Z,9.02
2019-04-10T08:03:10.594Z,9.13
2019-04-10T08:04:10.566Z,9.01
2019-04-10T08:05:10.555Z,9.20
2019-04-10T08:06:11.092Z,9.31
2019-04-10T08:07:11.652Z,9.36
2019-04-10T08:08:12.491Z,9.57
2019-04-10T08:09:10.602Z,9.72
2019-04-10T08:10:10.498Z,9.78
2019-04-10T08:11:10.491Z,9.91
2019-04-10T08:12:11.346Z,9.86
2019-04-10T08:13:10.465Z,9.89
2019-04-10T08:14:10.707Z,9.89
2019-04-10T08:15:11.227Z,9.81
2019-04-10T08:16:10.635Z,9.76
2019-04-10T08:17:10.419Z,9.74
2019-04-10T08:18:10.412Z,9.83
2019-04-10T08:19:10.470Z,9.89
2019-04-10T08:20:10.384Z,9.71
2019-04-10T08:21:11.293Z,9.72
2019-04-10T08:22:10.360Z,9.69
2019-04-10T08:23:10.448Z,9.74
2019-04-10T08:24:11.180Z,9.64
2019-04-10T08:25:10.846Z,9.75
2019-04-10T08:26:10.316Z,9.94
2019-04-10T08:27:10.440Z,10.08
2019-04-10T08:28:11.239Z,10.17
2019-04-10T08:29:10.281Z,10.23
2019-04-10T08:30:11.053Z,10.04
2019-04-10T08:31:10.258Z,9.90
2019-04-10T08:32:10.247Z,9.79
2019-04-10T08:33:10.236Z,9.91
2019-04-10T08:34:10.993Z,10.07
2019-04-10T08:35:11.243Z,10.18
2019-04-10T08:36:10.864Z,10.23
2019-04-10T08:37:10.327Z,10.32
2019-04-10T08:38:10.178Z,10.40
2019-04-10T08:39:10.967Z,10.55
2019-04-10T08:40:11.426Z,10.66
2019-04-10T08:41:10.759Z,10.73
2019-04-10T08:42:10.652Z,10.78
2019-04-10T08:43:10.120Z,10.88
2019-04-10T08:44:10.751Z,10.91
2019-04-10T08:45:11.230Z,11.03
2019-04-10T08:46:10.878Z,11.06
2019-04-10T08:47:11.000Z,10.81
2019-04-10T08:48:10.115Z,10.84
2019-04-10T08:49:10.061Z,10.91
2019-04-10T08:50:10.040Z,11.00
2019-04-10T08:51:10.765Z,11.11
2019-04-10T08:52:10.392Z,11.18
2019-04-10T08:53:10.009Z,11.21
2019-04-10T08:54:10.081Z,11.19
2019-04-10T08:55:10.214Z,11.28
2019-04-10T08:56:10.755Z,11.07
2019-04-10T08:57:11.195Z,11.00
2019-04-10T08:58:10.416Z,11.06
2019-04-10T08:59:09.945Z,11.00
2019-04-10T09:00:10.219Z,10.99
2019-04-10T09:01:11.113Z,10.91
2019-04-10T09:02:09.918Z,10.53
2019-04-10T09:03:10.825Z,10.41
2019-04-10T09:04:09.887Z,10.70
2019-04-10T09:05:09.878Z,10.85
2019-04-10T09:06:09.860Z,10.91
2019-04-10T09:07:09.873Z,10.94
2019-04-10T09:08:10.793Z,10.89
2019-04-10T09:09:09.844Z,10.91
2019-04-10T09:10:10.269Z,11.03
2019-04-10T09:11:09.797Z,10.92
2019-04-10T09:12:09.789Z,11.09
2019-04-10T09:13:10.451Z,11.18
2019-04-10T09:14:10.710Z,11.10
2019-04-10T09:15:09.859Z,11.33
2019-04-10T09:16:10.036Z,11.44
2019-04-10T09:17:09.733Z,11.58
2019-04-10T09:18:11.220Z,11.65
2019-04-10T09:19:09.767Z,11.60
2019-04-10T09:20:10.774Z,11.42
2019-04-10T09:21:09.682Z,11.62
2019-04-10T09:22:10.042Z,11.39
2019-04-10T09:23:21.519Z,11.21
2019-04-10T09:24:10.669Z,11.32
2019-04-10T09:25:09.636Z,11.43
2019-04-10T09:26:09.624Z,11.37
2019-04-10T09:27:09.614Z,11.36
2019-04-10T09:28:10.557Z,11.18
2019-04-10T09:29:09.798Z,11.37
2019-04-10T09:30:10.804Z,11.62
2019-04-10T09:31:09.566Z,11.82
2019-04-10T09:32:11.111Z,12.19
2019-04-10T09:33:16.948Z,12.23
2019-04-10T09:34:11.682Z,12.49
2019-04-10T09:35:09.520Z,12.64
2019-04-10T09:36:09.509Z,12.83
2019-04-10T09:37:10.072Z,13.44
2019-04-10T09:38:10.496Z,14.12
2019-04-10T09:39:09.614Z,14.14
2019-04-10T09:40:09.481Z,14.45
2019-04-10T09:41:09.957Z,14.95
2019-04-10T09:42:09.443Z,15.13
2019-04-10T09:43:09.433Z,15.56
2019-04-10T09:44:10.304Z,15.68
2019-04-10T09:45:09.427Z,15.71
2019-04-10T09:46:10.098Z,15.94
2019-04-10T09:47:09.894Z,16.15
2019-04-10T09:48:09.373Z,16.41
2019-04-10T09:49:09.364Z,16.53
2019-04-10T09:50:09.733Z,16.41
2019-04-10T09:51:09.767Z,16.52
2019-04-10T09:52:10.291Z,16.43
2019-04-10T09:53:09.319Z,17.06
2019-04-10T09:54:09.911Z,17.31
2019-04-10T09:55:09.548Z,17.31
2019-04-10T09:56:09.561Z,17.59
2019-04-10T09:57:09.272Z,17.93
2019-04-10T09:58:09.262Z,18.36
2019-04-10T09:59:09.670Z,17.99
2019-04-10T10:00:10.461Z,17.70
2019-04-10T10:01:10.367Z,17.93
2019-04-10T10:02:09.322Z,18.15
2019-04-10T10:03:09.789Z,18.08
2019-04-10T10:04:09.197Z,18.44
2019-04-10T10:05:09.184Z,18.65
2019-04-10T10:06:09.186Z,18.60
2019-04-10T10:07:10.298Z,18.58
2019-04-10T10:08:09.196Z,18.36
2019-04-10T10:09:09.329Z,18.62
2019-04-10T10:10:09.124Z,18.54
2019-04-10T10:11:09.554Z,18.82
2019-04-10T10:12:09.578Z,19.36
2019-04-10T10:13:09.602Z,19.99
2019-04-10T10:14:10.286Z,19.98
2019-04-10T10:15:09.430Z,19.80
2019-04-10T10:16:09.055Z,18.60
2019-04-10T10:17:09.058Z,17.96
2019-04-10T10:18:09.032Z,18.57
2019-04-10T10:19:09.966Z,19.43
2019-04-10T10:20:09.011Z,19.94
2019-04-10T10:21:09.000Z,19.91
2019-04-10T10:22:09.368Z,20.62
2019-04-10T10:23:09.592Z,20.38
2019-04-10T10:24:08.978Z,20.03
2019-04-10T10:25:09.025Z,20.02
2019-04-10T10:26:09.914Z,19.51
2019-04-10T10:27:09.483Z,18.60
2019-04-10T10:28:09.160Z,18.55
2019-04-10T10:29:09.266Z,18.58
2019-04-10T10:30:09.368Z,18.66
2019-04-10T10:31:08.885Z,18.20
2019-04-10T10:32:08.873Z,18.17
2019-04-10T10:33:09.855Z,18.32
2019-04-10T10:34:08.852Z,18.48
2019-04-10T10:35:09.348Z,18.73
2019-04-10T10:36:08.832Z,18.88
2019-04-10T10:37:08.816Z,19.62
2019-04-10T10:38:08.821Z,18.99
2019-04-10T10:39:12.718Z,19.55
2019-04-10T10:40:09.991Z,19.81
2019-04-10T10:41:08.823Z,18.98
2019-04-10T10:42:09.593Z,18.35
2019-04-10T10:43:09.897Z,18.60
2019-04-10T10:44:09.002Z,18.78
2019-04-10T10:45:08.730Z,19.10
2019-04-10T10:46:09.264Z,19.73
2019-04-10T10:47:08.707Z,19.25
2019-04-10T10:48:09.132Z,19.66
2019-04-10T10:49:08.688Z,19.69
2019-04-10T10:50:08.810Z,19.63
2019-04-10T10:51:08.824Z,18.95
2019-04-10T10:52:09.031Z,18.88
2019-04-10T10:53:08.653Z,18.75
2019-04-10T10:54:08.628Z,19.00
2019-04-10T10:55:09.650Z,19.58
2019-04-10T10:56:09.640Z,19.99
2019-04-10T10:57:09.032Z,20.35
2019-04-10T10:58:08.603Z,19.98
2019-04-10T10:59:09.245Z,19.47
2019-04-10T11:00:10.319Z,18.91
2019-04-10T11:01:08.548Z,18.87
2019-04-10T11:02:08.624Z,18.78
2019-04-10T11:03:09.794Z,18.63
2019-04-10T11:04:08.860Z,18.50
2019-04-10T11:05:08.862Z,18.84
2019-04-10T11:06:08.789Z,19.00
2019-04-10T11:07:08.706Z,18.67
2019-04-10T11:08:08.475Z,18.63
2019-04-10T11:09:08.477Z,18.82
2019-04-10T11:10:08.687Z,18.82
2019-04-10T11:11:08.673Z,18.82
2019-04-10T11:12:09.471Z,19.43
2019-04-10T11:13:08.823Z,19.78
2019-04-10T11:14:08.435Z,20.26
2019-04-10T11:15:08.395Z,19.54
2019-04-10T11:16:09.225Z,19.06
2019-04-10T11:17:09.315Z,19.04
2019-04-10T11:18:08.481Z,19.00
2019-04-10T11:19:08.354Z,18.87
2019-04-10T11:20:08.359Z,19.06
2019-04-10T11:21:11.353Z,18.67
2019-04-10T11:22:09.389Z,18.70
2019-04-10T11:23:09.418Z,18.98
2019-04-10T11:24:09.217Z,19.58
2019-04-10T11:25:08.303Z,19.65
2019-04-10T11:26:08.584Z,19.95
2019-04-10T11:27:09.915Z,20.06
2019-04-10T11:28:08.543Z,19.76
2019-04-10T11:29:09.907Z,19.62
2019-04-10T11:30:08.508Z,19.56
2019-04-10T11:31:09.273Z,18.88
2019-04-10T11:32:09.187Z,17.66
2019-04-10T11:33:08.523Z,16.58
2019-04-10T11:34:09.983Z,15.75
2019-04-10T11:35:08.201Z,15.29
2019-04-10T11:36:08.163Z,14.58
2019-04-10T11:38:09.141Z,13.15
2019-04-10T11:39:16.759Z,12.64
2019-04-10T11:40:09.148Z,12.39
2019-04-10T11:41:08.110Z,12.21
2019-04-10T11:42:09.975Z,12.01
2019-04-10T11:43:09.925Z,11.85
2019-04-10T11:44:09.462Z,11.65
2019-04-10T11:45:09.808Z,11.64
2019-04-10T11:46:08.118Z,11.58
2019-04-10T11:47:09.514Z,11.64
2019-04-10T11:48:08.032Z,11.67
2019-04-10T11:49:10.265Z,11.78
2019-04-10T11:50:13.383Z,11.73
2019-04-10T11:51:11.923Z,11.79
2019-04-10T11:52:10.354Z,11.79
2019-04-10T11:53:10.283Z,11.83
2019-04-10T11:54:12.523Z,11.96
2019-04-10T11:55:13.759Z,11.90
2019-04-10T11:56:11.552Z,11.79
2019-04-10T11:57:07.935Z,11.72
2019-04-10T11:58:10.171Z,11.70
2019-04-10T11:59:11.570Z,11.69
2019-04-10T12:00:12.089Z,11.72
2019-04-10T12:01:08.884Z,11.72
2019-04-10T12:02:08.834Z,11.79
2019-04-10T12:03:10.029Z,11.82
2019-04-10T12:04:09.801Z,11.80
2019-04-10T12:05:12.029Z,11.75
2019-04-10T12:06:11.479Z,11.64
2019-04-10T12:07:09.772Z,11.67
2019-04-10T12:08:33.469Z,11.69
2019-04-10T12:09:45.371Z,11.49
2019-04-10T12:11:13.810Z,11.70
2019-04-10T12:12:09.092Z,11.80
2019-04-10T12:13:08.197Z,11.80
2019-04-10T12:14:07.743Z,11.72
2019-04-10T12:15:08.033Z,11.60
2019-04-10T12:16:07.713Z,11.49
2019-04-10T12:17:07.702Z,11.40
2019-04-10T12:18:08.636Z,11.57
2019-04-10T12:19:07.872Z,11.46
2019-04-10T12:20:07.672Z,11.65
2019-04-10T12:21:07.655Z,11.62
2019-04-10T12:22:07.645Z,11.64
2019-04-10T12:23:08.462Z,11.64
2019-04-10T12:24:07.641Z,11.75
2019-04-10T12:25:07.610Z,11.80
2019-04-10T12:26:07.611Z,11.90
2019-04-10T12:27:07.589Z,11.72
2019-04-10T12:28:07.580Z,11.67
2019-04-10T12:29:08.621Z,11.61
2019-04-10T12:30:07.555Z,11.54
2019-04-10T12:31:07.936Z,11.62
2019-04-10T12:32:08.230Z,11.67
2019-04-10T12:33:07.632Z,11.69
2019-04-10T12:34:08.752Z,11.70
2019-04-10T12:35:07.506Z,11.61
2019-04-10T12:36:07.488Z,11.60
2019-04-10T12:37:07.475Z,11.58
2019-04-10T12:38:10.452Z,11.51
2019-04-10T12:39:07.905Z,11.54
2019-04-10T12:40:07.721Z,11.51
2019-04-10T12:41:07.430Z,11.47
2019-04-10T12:42:07.929Z,11.55
2019-04-10T12:43:08.460Z,11.58
2019-04-10T12:44:07.525Z,11.55
2019-04-10T12:45:08.262Z,11.65
2019-04-10T12:46:07.376Z,11.62
2019-04-10T12:47:07.984Z,11.65
2019-04-10T12:48:07.351Z,11.65
2019-04-10T12:49:07.504Z,11.62
2019-04-10T12:50:08.101Z,11.51
2019-04-10T12:51:07.721Z,11.64
2019-04-10T12:52:08.021Z,11.57
2019-04-10T12:53:07.443Z,11.57
2019-04-10T12:54:07.917Z,11.57
2019-04-10T12:55:08.127Z,11.39
2019-04-10T12:56:08.185Z,11.35
2019-04-10T12:57:07.942Z,11.29
2019-04-10T12:58:12.945Z,11.21
2019-04-10T12:59:08.910Z,11.00
2019-04-10T13:00:07.212Z,10.92
2019-04-10T13:01:07.218Z,10.92
2019-04-10T13:02:07.188Z,11.02
2019-04-10T13:03:08.321Z,10.94
2019-04-10T13:04:07.511Z,11.02
2019-04-10T13:05:07.273Z,11.06
2019-04-10T13:06:07.518Z,11.04
2019-04-10T13:07:07.476Z,11.17
2019-04-10T13:08:17.847Z,11.10
2019-04-10T13:09:12.517Z,11.14
2019-04-10T13:10:07.095Z,11.10
2019-04-10T13:11:07.826Z,11.15